< < Back
Terminal Aerodrome Forecast


Current Version              Previous Versions:   1  2  3  4  5  6  7  8  9  

Terminal Aerodrome Forecast

498
FTUS42 KMLB 222300
TAFDAB
TAF
KDAB 222324Z 2300/2324 12004KT P6SM VCSH FEW007 SCT015 BKN090
     FM230400 VRB03KT P6SM FEW030 SCT120 BKN250
     FM231400 VRB02KT P6SM FEW005 BKN100 BKN250
     FM232000 13006KT P6SM VCTS FEW025 SCT040CB BKN150=

Latest METAR

145
SAUS80 KWBC 230000 RRC
MTRDAB
METAR KDAB 222353Z COR 18005KT 10SM FEW007 SCT035 BKN043 OVC130 23/21
A3002 RMK AO2 RAE2257 TSE20 SLP165 TS MOVD NE FRQ LTGIC DSNT
NE-SE CB DSNT NE-SE P0000 60036 T02280211 10278 20222
53011


USA.gov is the U.S. government's official web portal to all federal, state and local government web resources and services.